sensor_id;sensor_type;location;lat;lon;timestamp;P1;durP1;ratioP1;P2;durP2;ratioP2
73089;SDS011;61269;49.450;8.610;2023-05-10T00:00:19;2.38;;;0.82;;
73089;SDS011;61269;49.450;8.610;2023-05-10T00:03:07;1.67;;;0.70;;
73089;SDS011;61269;49.450;8.610;2023-05-10T00:05:35;2.20;;;1.02;;
73089;SDS011;61269;49.450;8.610;2023-05-10T00:08:03;1.30;;;0.60;;
73089;SDS011;61269;49.450;8.610;2023-05-10T00:10:32;2.42;;;0.75;;
73089;SDS011;61269;49.450;8.610;2023-05-10T00:13:01;2.05;;;0.80;;
73089;SDS011;61269;49.450;8.610;2023-05-10T00:15:29;1.23;;;0.70;;
73089;SDS011;61269;49.450;8.610;2023-05-10T00:17:58;1.20;;;0.70;;
73089;SDS011;61269;49.450;8.610;2023-05-10T00:20:26;2.47;;;0.77;;
73089;SDS011;61269;49.450;8.610;2023-05-10T00:22:54;2.10;;;0.90;;
73089;SDS011;61269;49.450;8.610;2023-05-10T00:25:22;1.42;;;0.60;;
73089;SDS011;61269;49.450;8.610;2023-05-10T00:27:50;2.13;;;0.57;;
73089;SDS011;61269;49.450;8.610;2023-05-10T00:30:20;1.67;;;0.80;;
73089;SDS011;61269;49.450;8.610;2023-05-10T00:32:48;1.40;;;0.70;;
73089;SDS011;61269;49.450;8.610;2023-05-10T00:35:16;2.05;;;0.95;;
73089;SDS011;61269;49.450;8.610;2023-05-10T00:37:45;1.55;;;0.40;;
73089;SDS011;61269;49.450;8.610;2023-05-10T00:40:14;1.25;;;0.70;;
73089;SDS011;61269;49.450;8.610;2023-05-10T00:42:46;3.60;;;0.73;;
73089;SDS011;61269;49.450;8.610;2023-05-10T00:45:14;1.10;;;0.60;;
73089;SDS011;61269;49.450;8.610;2023-05-10T00:47:44;1.10;;;0.60;;
73089;SDS011;61269;49.450;8.610;2023-05-10T00:50:13;1.77;;;0.70;;
73089;SDS011;61269;49.450;8.610;2023-05-10T00:52:42;1.95;;;0.52;;
73089;SDS011;61269;49.450;8.610;2023-05-10T00:55:11;1.50;;;0.75;;
73089;SDS011;61269;49.450;8.610;2023-05-10T00:57:39;1.90;;;0.83;;
73089;SDS011;61269;49.450;8.610;2023-05-10T01:00:08;2.30;;;0.85;;
73089;SDS011;61269;49.450;8.610;2023-05-10T01:02:37;10.93;;;0.80;;
73089;SDS011;61269;49.450;8.610;2023-05-10T01:05:08;2.65;;;0.77;;
73089;SDS011;61269;49.450;8.610;2023-05-10T01:07:36;2.03;;;0.73;;
73089;SDS011;61269;49.450;8.610;2023-05-10T01:10:05;2.23;;;0.80;;
73089;SDS011;61269;49.450;8.610;2023-05-10T01:12:33;1.33;;;0.57;;
73089;SDS011;61269;49.450;8.610;2023-05-10T01:15:03;2.05;;;0.60;;
73089;SDS011;61269;49.450;8.610;2023-05-10T01:17:32;1.20;;;0.63;;
73089;SDS011;61269;49.450;8.610;2023-05-10T01:20:00;1.35;;;0.60;;
73089;SDS011;61269;49.450;8.610;2023-05-10T01:22:36;1.10;;;0.70;;
73089;SDS011;61269;49.450;8.610;2023-05-10T01:25:19;1.27;;;0.60;;
73089;SDS011;61269;49.450;8.610;2023-05-10T01:31:08;1.08;;;0.50;;
73089;SDS011;61269;49.450;8.610;2023-05-10T01:33:48;1.27;;;0.70;;
73089;SDS011;61269;49.450;8.610;2023-05-10T01:36:22;1.33;;;0.60;;
73089;SDS011;61269;49.450;8.610;2023-05-10T01:38:56;2.42;;;0.70;;
73089;SDS011;61269;49.450;8.610;2023-05-10T01:41:31;1.90;;;0.75;;
73089;SDS011;61269;49.450;8.610;2023-05-10T01:44:07;1.80;;;0.60;;
73089;SDS011;61269;49.450;8.610;2023-05-10T01:46:39;1.20;;;0.88;;
73089;SDS011;61269;49.450;8.610;2023-05-10T01:49:09;2.17;;;0.70;;
73089;SDS011;61269;49.450;8.610;2023-05-10T01:51:41;1.60;;;1.02;;
73089;SDS011;61269;49.450;8.610;2023-05-10T01:54:13;1.50;;;0.75;;
73089;SDS011;61269;49.450;8.610;2023-05-10T01:56:42;1.48;;;0.70;;
73089;SDS011;61269;49.450;8.610;2023-05-10T01:59:12;1.30;;;0.82;;
73089;SDS011;61269;49.450;8.610;2023-05-10T02:01:41;2.17;;;0.90;;
73089;SDS011;61269;49.450;8.610;2023-05-10T02:04:11;0.95;;;0.52;;
73089;SDS011;61269;49.450;8.610;2023-05-10T02:06:42;1.05;;;0.60;;
73089;SDS011;61269;49.450;8.610;2023-05-10T02:09:11;1.13;;;0.65;;
73089;SDS011;61269;49.450;8.610;2023-05-10T02:11:39;1.38;;;0.73;;
73089;SDS011;61269;49.450;8.610;2023-05-10T02:14:09;3.00;;;0.87;;
73089;SDS011;61269;49.450;8.610;2023-05-10T02:16:39;1.65;;;0.90;;
73089;SDS011;61269;49.450;8.610;2023-05-10T02:19:07;1.67;;;0.75;;
73089;SDS011;61269;49.450;8.610;2023-05-10T02:21:38;1.77;;;0.90;;
73089;SDS011;61269;49.450;8.610;2023-05-10T02:24:07;1.50;;;0.85;;
73089;SDS011;61269;49.450;8.610;2023-05-10T02:26:36;1.63;;;0.60;;
73089;SDS011;61269;49.450;8.610;2023-05-10T02:29:05;1.70;;;0.88;;
73089;SDS011;61269;49.450;8.610;2023-05-10T02:31:34;1.75;;;0.70;;
73089;SDS011;61269;49.450;8.610;2023-05-10T02:34:03;1.42;;;0.73;;
73089;SDS011;61269;49.450;8.610;2023-05-10T02:36:32;1.25;;;0.60;;
73089;SDS011;61269;49.450;8.610;2023-05-10T02:39:02;3.30;;;0.87;;
73089;SDS011;61269;49.450;8.610;2023-05-10T02:41:31;2.05;;;0.93;;
73089;SDS011;61269;49.450;8.610;2023-05-10T02:44:00;1.92;;;0.88;;
73089;SDS011;61269;49.450;8.610;2023-05-10T02:46:29;1.77;;;0.77;;
73089;SDS011;61269;49.450;8.610;2023-05-10T02:48:58;1.27;;;0.70;;
73089;SDS011;61269;49.450;8.610;2023-05-10T02:51:28;1.67;;;0.87;;
73089;SDS011;61269;49.450;8.610;2023-05-10T02:54:03;1.77;;;0.80;;
73089;SDS011;61269;49.450;8.610;2023-05-10T02:56:35;2.78;;;0.90;;
73089;SDS011;61269;49.450;8.610;2023-05-10T02:59:06;2.20;;;0.80;;
73089;SDS011;61269;49.450;8.610;2023-05-10T03:01:34;1.83;;;0.75;;
73089;SDS011;61269;49.450;8.610;2023-05-10T03:04:02;2.33;;;0.90;;
73089;SDS011;61269;49.450;8.610;2023-05-10T03:06:31;1.95;;;1.20;;
73089;SDS011;61269;49.450;8.610;2023-05-10T03:09:02;2.08;;;0.70;;
73089;SDS011;61269;49.450;8.610;2023-05-10T03:11:34;2.05;;;0.90;;
73089;SDS011;61269;49.450;8.610;2023-05-10T03:14:10;2.42;;;1.05;;
73089;SDS011;61269;49.450;8.610;2023-05-10T03:16:45;2.13;;;1.30;;
73089;SDS011;61269;49.450;8.610;2023-05-10T03:19:16;1.88;;;1.02;;
73089;SDS011;61269;49.450;8.610;2023-05-10T03:21:47;1.42;;;0.70;;
73089;SDS011;61269;49.450;8.610;2023-05-10T03:24:20;1.42;;;0.80;;
73089;SDS011;61269;49.450;8.610;2023-05-10T03:26:50;1.75;;;0.93;;
73089;SDS011;61269;49.450;8.610;2023-05-10T03:29:19;2.43;;;0.90;;
73089;SDS011;61269;49.450;8.610;2023-05-10T03:31:48;1.52;;;0.60;;
73089;SDS011;61269;49.450;8.610;2023-05-10T03:34:16;1.85;;;0.80;;
73089;SDS011;61269;49.450;8.610;2023-05-10T03:36:44;1.65;;;1.00;;
73089;SDS011;61269;49.450;8.610;2023-05-10T03:39:12;1.90;;;0.80;;
73089;SDS011;61269;49.450;8.610;2023-05-10T03:41:43;2.03;;;0.70;;
73089;SDS011;61269;49.450;8.610;2023-05-10T03:44:11;1.80;;;0.90;;
73089;SDS011;61269;49.450;8.610;2023-05-10T03:46:40;1.25;;;0.68;;
73089;SDS011;61269;49.450;8.610;2023-05-10T03:49:08;1.55;;;0.88;;
73089;SDS011;61269;49.450;8.610;2023-05-10T03:51:36;1.48;;;0.80;;
73089;SDS011;61269;49.450;8.610;2023-05-10T03:54:04;2.03;;;0.87;;
73089;SDS011;61269;49.450;8.610;2023-05-10T03:56:33;1.80;;;0.80;;
73089;SDS011;61269;49.450;8.610;2023-05-10T03:59:02;1.88;;;0.70;;
73089;SDS011;61269;49.450;8.610;2023-05-10T04:01:34;2.40;;;1.00;;
73089;SDS011;61269;49.450;8.610;2023-05-10T04:04:02;2.13;;;1.10;;
73089;SDS011;61269;49.450;8.610;2023-05-10T04:06:31;2.33;;;1.03;;
73089;SDS011;61269;49.450;8.610;2023-05-10T04:08:59;3.08;;;1.40;;
73089;SDS011;61269;49.450;8.610;2023-05-10T04:11:31;2.22;;;0.82;;
73089;SDS011;61269;49.450;8.610;2023-05-10T04:13:59;1.85;;;0.85;;
73089;SDS011;61269;49.450;8.610;2023-05-10T04:16:28;2.63;;;1.10;;
73089;SDS011;61269;49.450;8.610;2023-05-10T04:18:56;2.00;;;1.07;;
73089;SDS011;61269;49.450;8.610;2023-05-10T04:21:25;1.65;;;0.90;;
73089;SDS011;61269;49.450;8.610;2023-05-10T04:23:53;3.13;;;1.20;;
73089;SDS011;61269;49.450;8.610;2023-05-10T04:26:21;2.63;;;1.00;;
73089;SDS011;61269;49.450;8.610;2023-05-10T04:28:50;2.22;;;1.27;;
73089;SDS011;61269;49.450;8.610;2023-05-10T04:31:18;2.20;;;1.20;;
73089;SDS011;61269;49.450;8.610;2023-05-10T04:33:48;4.45;;;1.45;;
73089;SDS011;61269;49.450;8.610;2023-05-10T04:36:16;3.08;;;1.30;;
73089;SDS011;61269;49.450;8.610;2023-05-10T04:38:44;3.78;;;1.30;;
73089;SDS011;61269;49.450;8.610;2023-05-10T04:41:13;3.20;;;1.15;;
73089;SDS011;61269;49.450;8.610;2023-05-10T04:43:41;2.30;;;1.10;;
73089;SDS011;61269;49.450;8.610;2023-05-10T04:46:09;2.60;;;1.20;;
73089;SDS011;61269;49.450;8.610;2023-05-10T04:48:37;2.63;;;1.20;;
73089;SDS011;61269;49.450;8.610;2023-05-10T04:51:07;2.95;;;1.05;;
73089;SDS011;61269;49.450;8.610;2023-05-10T04:53:35;4.15;;;1.58;;
73089;SDS011;61269;49.450;8.610;2023-05-10T04:56:03;3.00;;;1.53;;
73089;SDS011;61269;49.450;8.610;2023-05-10T04:58:32;2.97;;;1.35;;
73089;SDS011;61269;49.450;8.610;2023-05-10T05:01:04;3.53;;;1.40;;
73089;SDS011;61269;49.450;8.610;2023-05-10T05:03:33;2.90;;;1.52;;
73089;SDS011;61269;49.450;8.610;2023-05-10T05:06:01;3.17;;;1.38;;
73089;SDS011;61269;49.450;8.610;2023-05-10T05:08:31;4.47;;;1.87;;
73089;SDS011;61269;49.450;8.610;2023-05-10T05:10:59;3.83;;;1.85;;
73089;SDS011;61269;49.450;8.610;2023-05-10T05:13:27;3.75;;;1.75;;
73089;SDS011;61269;49.450;8.610;2023-05-10T05:15:56;3.88;;;1.90;;
73089;SDS011;61269;49.450;8.610;2023-05-10T05:18:24;4.03;;;1.70;;
73089;SDS011;61269;49.450;8.610;2023-05-10T05:20:52;4.57;;;1.80;;
73089;SDS011;61269;49.450;8.610;2023-05-10T05:23:20;3.25;;;1.58;;
73089;SDS011;61269;49.450;8.610;2023-05-10T05:25:52;4.18;;;1.75;;
73089;SDS011;61269;49.450;8.610;2023-05-10T05:28:21;3.85;;;1.80;;
73089;SDS011;61269;49.450;8.610;2023-05-10T05:30:49;4.03;;;1.70;;
73089;SDS011;61269;49.450;8.610;2023-05-10T05:33:17;3.47;;;1.63;;
73089;SDS011;61269;49.450;8.610;2023-05-10T05:35:45;4.93;;;2.10;;
73089;SDS011;61269;49.450;8.610;2023-05-10T05:38:17;3.92;;;1.83;;
73089;SDS011;61269;49.450;8.610;2023-05-10T05:40:45;4.30;;;1.70;;
73089;SDS011;61269;49.450;8.610;2023-05-10T05:43:15;4.15;;;1.90;;
73089;SDS011;61269;49.450;8.610;2023-05-10T05:45:43;3.77;;;1.70;;
73089;SDS011;61269;49.450;8.610;2023-05-10T05:48:11;4.18;;;1.63;;
73089;SDS011;61269;49.450;8.610;2023-05-10T05:50:39;4.57;;;2.00;;
73089;SDS011;61269;49.450;8.610;2023-05-10T05:53:08;3.03;;;1.40;;
73089;SDS011;61269;49.450;8.610;2023-05-10T05:55:36;5.55;;;2.10;;
73089;SDS011;61269;49.450;8.610;2023-05-10T05:58:05;4.30;;;1.73;;
73089;SDS011;61269;49.450;8.610;2023-05-10T06:00:34;3.95;;;1.90;;
73089;SDS011;61269;49.450;8.610;2023-05-10T06:03:02;3.55;;;1.70;;
73089;SDS011;61269;49.450;8.610;2023-05-10T06:05:31;3.08;;;1.67;;
73089;SDS011;61269;49.450;8.610;2023-05-10T06:07:59;4.20;;;1.85;;
73089;SDS011;61269;49.450;8.610;2023-05-10T06:10:27;3.60;;;1.70;;
73089;SDS011;61269;49.450;8.610;2023-05-10T06:12:57;4.28;;;2.15;;
73089;SDS011;61269;49.450;8.610;2023-05-10T06:15:25;3.72;;;1.52;;
73089;SDS011;61269;49.450;8.610;2023-05-10T06:17:54;4.00;;;2.00;;
73089;SDS011;61269;49.450;8.610;2023-05-10T06:20:23;4.47;;;1.98;;
73089;SDS011;61269;49.450;8.610;2023-05-10T06:22:51;4.83;;;2.20;;
73089;SDS011;61269;49.450;8.610;2023-05-10T06:25:19;4.03;;;1.80;;
73089;SDS011;61269;49.450;8.610;2023-05-10T06:27:47;6.18;;;2.60;;
73089;SDS011;61269;49.450;8.610;2023-05-10T06:30:19;6.18;;;2.20;;
73089;SDS011;61269;49.450;8.610;2023-05-10T06:32:49;6.00;;;1.80;;
73089;SDS011;61269;49.450;8.610;2023-05-10T06:35:20;4.50;;;2.30;;
73089;SDS011;61269;49.450;8.610;2023-05-10T06:37:48;5.55;;;2.40;;
73089;SDS011;61269;49.450;8.610;2023-05-10T06:40:16;4.72;;;2.00;;
73089;SDS011;61269;49.450;8.610;2023-05-10T06:42:45;5.60;;;2.25;;
73089;SDS011;61269;49.450;8.610;2023-05-10T06:45:13;4.95;;;2.30;;
73089;SDS011;61269;49.450;8.610;2023-05-10T06:47:42;4.60;;;2.27;;
73089;SDS011;61269;49.450;8.610;2023-05-10T06:50:11;6.15;;;2.13;;
73089;SDS011;61269;49.450;8.610;2023-05-10T06:52:40;5.20;;;2.35;;
73089;SDS011;61269;49.450;8.610;2023-05-10T06:55:10;4.80;;;2.22;;
73089;SDS011;61269;49.450;8.610;2023-05-10T06:57:38;4.95;;;2.40;;
73089;SDS011;61269;49.450;8.610;2023-05-10T07:00:07;5.33;;;2.60;;
73089;SDS011;61269;49.450;8.610;2023-05-10T07:02:36;5.43;;;2.58;;
73089;SDS011;61269;49.450;8.610;2023-05-10T07:05:04;6.20;;;2.85;;
73089;SDS011;61269;49.450;8.610;2023-05-10T07:07:33;5.93;;;2.65;;
73089;SDS011;61269;49.450;8.610;2023-05-10T07:10:03;5.30;;;2.40;;
73089;SDS011;61269;49.450;8.610;2023-05-10T07:12:31;4.27;;;2.20;;
73089;SDS011;61269;49.450;8.610;2023-05-10T07:15:00;4.28;;;2.13;;
73089;SDS011;61269;49.450;8.610;2023-05-10T07:17:28;4.90;;;2.13;;
73089;SDS011;61269;49.450;8.610;2023-05-10T07:19:57;5.28;;;2.60;;
73089;SDS011;61269;49.450;8.610;2023-05-10T07:22:25;4.85;;;2.40;;
73089;SDS011;61269;49.450;8.610;2023-05-10T07:24:53;5.47;;;2.40;;
73089;SDS011;61269;49.450;8.610;2023-05-10T07:27:23;4.40;;;2.10;;
73089;SDS011;61269;49.450;8.610;2023-05-10T07:29:51;4.45;;;2.10;;
73089;SDS011;61269;49.450;8.610;2023-05-10T07:32:19;5.25;;;2.47;;
73089;SDS011;61269;49.450;8.610;2023-05-10T07:34:48;3.42;;;1.85;;
73089;SDS011;61269;49.450;8.610;2023-05-10T07:37:16;5.60;;;2.03;;
73089;SDS011;61269;49.450;8.610;2023-05-10T07:39:44;4.80;;;1.67;;
73089;SDS011;61269;49.450;8.610;2023-05-10T07:42:12;2.97;;;1.50;;
73089;SDS011;61269;49.450;8.610;2023-05-10T07:44:42;3.70;;;1.50;;
73089;SDS011;61269;49.450;8.610;2023-05-10T07:47:10;3.70;;;1.90;;
73089;SDS011;61269;49.450;8.610;2023-05-10T07:49:38;4.40;;;2.00;;
73089;SDS011;61269;49.450;8.610;2023-05-10T07:52:06;3.97;;;1.85;;
73089;SDS011;61269;49.450;8.610;2023-05-10T07:54:35;4.13;;;1.38;;
73089;SDS011;61269;49.450;8.610;2023-05-10T07:57:03;3.03;;;1.30;;
73089;SDS011;61269;49.450;8.610;2023-05-10T07:59:31;2.88;;;1.40;;
73089;SDS011;61269;49.450;8.610;2023-05-10T08:02:01;2.63;;;1.40;;
73089;SDS011;61269;49.450;8.610;2023-05-10T08:04:29;2.85;;;1.30;;
73089;SDS011;61269;49.450;8.610;2023-05-10T08:06:57;3.92;;;1.60;;
73089;SDS011;61269;49.450;8.610;2023-05-10T08:09:26;5.90;;;1.30;;
73089;SDS011;61269;49.450;8.610;2023-05-10T08:11:54;2.20;;;1.15;;
73089;SDS011;61269;49.450;8.610;2023-05-10T08:14:22;2.13;;;1.20;;
73089;SDS011;61269;49.450;8.610;2023-05-10T08:16:50;2.05;;;1.00;;
73089;SDS011;61269;49.450;8.610;2023-05-10T08:19:19;2.05;;;1.15;;
73089;SDS011;61269;49.450;8.610;2023-05-10T08:21:48;2.03;;;1.08;;
73089;SDS011;61269;49.450;8.610;2023-05-10T08:24:16;2.00;;;1.05;;
73089;SDS011;61269;49.450;8.610;2023-05-10T08:26:44;2.53;;;1.20;;
73089;SDS011;61269;49.450;8.610;2023-05-10T08:29:12;1.77;;;0.98;;
73089;SDS011;61269;49.450;8.610;2023-05-10T08:31:41;2.30;;;1.08;;
73089;SDS011;61269;49.450;8.610;2023-05-10T08:34:09;3.00;;;1.20;;
73089;SDS011;61269;49.450;8.610;2023-05-10T08:36:39;2.40;;;1.10;;
73089;SDS011;61269;49.450;8.610;2023-05-10T08:39:07;2.67;;;1.00;;
73089;SDS011;61269;49.450;8.610;2023-05-10T08:41:53;2.78;;;1.20;;
73089;SDS011;61269;49.450;8.610;2023-05-10T08:44:22;1.60;;;0.82;;
73089;SDS011;61269;49.450;8.610;2023-05-10T08:46:50;3.40;;;1.17;;
73089;SDS011;61269;49.450;8.610;2023-05-10T08:49:19;1.88;;;0.82;;
73089;SDS011;61269;49.450;8.610;2023-05-10T08:51:51;1.70;;;1.00;;
73089;SDS011;61269;49.450;8.610;2023-05-10T08:54:20;1.70;;;0.80;;
73089;SDS011;61269;49.450;8.610;2023-05-10T08:56:48;2.13;;;0.98;;
73089;SDS011;61269;49.450;8.610;2023-05-10T08:59:17;2.13;;;0.90;;
73089;SDS011;61269;49.450;8.610;2023-05-10T09:01:45;1.52;;;1.00;;
73089;SDS011;61269;49.450;8.610;2023-05-10T09:04:16;2.17;;;1.03;;
73089;SDS011;61269;49.450;8.610;2023-05-10T09:06:44;2.20;;;1.23;;
73089;SDS011;61269;49.450;8.610;2023-05-10T09:09:14;1.95;;;0.82;;
73089;SDS011;61269;49.450;8.610;2023-05-10T09:11:42;1.92;;;0.90;;
73089;SDS011;61269;49.450;8.610;2023-05-10T09:14:11;1.75;;;0.90;;
73089;SDS011;61269;49.450;8.610;2023-05-10T09:16:40;2.00;;;1.03;;
73089;SDS011;61269;49.450;8.610;2023-05-10T09:19:09;1.42;;;0.77;;
73089;SDS011;61269;49.450;8.610;2023-05-10T09:21:37;2.67;;;1.02;;
73089;SDS011;61269;49.450;8.610;2023-05-10T09:24:06;2.38;;;1.02;;
73089;SDS011;61269;49.450;8.610;2023-05-10T09:26:39;1.65;;;0.80;;
73089;SDS011;61269;49.450;8.610;2023-05-10T09:29:14;1.80;;;0.90;;
73089;SDS011;61269;49.450;8.610;2023-05-10T09:31:44;2.25;;;1.20;;
73089;SDS011;61269;49.450;8.610;2023-05-10T09:34:17;1.80;;;0.85;;
73089;SDS011;61269;49.450;8.610;2023-05-10T09:36:53;2.63;;;1.02;;
73089;SDS011;61269;49.450;8.610;2023-05-10T09:39:29;1.83;;;1.05;;
73089;SDS011;61269;49.450;8.610;2023-05-10T09:42:00;1.50;;;0.77;;
73089;SDS011;61269;49.450;8.610;2023-05-10T09:44:31;1.60;;;0.88;;
73089;SDS011;61269;49.450;8.610;2023-05-10T09:46:59;1.50;;;1.05;;
73089;SDS011;61269;49.450;8.610;2023-05-10T09:49:28;1.40;;;0.90;;
73089;SDS011;61269;49.450;8.610;2023-05-10T09:52:00;2.20;;;1.05;;
73089;SDS011;61269;49.450;8.610;2023-05-10T09:54:29;2.17;;;1.00;;
73089;SDS011;61269;49.450;8.610;2023-05-10T09:56:57;2.85;;;0.93;;
73089;SDS011;61269;49.450;8.610;2023-05-10T09:59:28;1.33;;;0.70;;
73089;SDS011;61269;49.450;8.610;2023-05-10T10:01:57;1.80;;;0.80;;
73089;SDS011;61269;49.450;8.610;2023-05-10T10:04:26;3.22;;;0.68;;
73089;SDS011;61269;49.450;8.610;2023-05-10T10:06:59;2.23;;;0.80;;
73089;SDS011;61269;49.450;8.610;2023-05-10T10:09:28;1.83;;;0.93;;
73089;SDS011;61269;49.450;8.610;2023-05-10T10:11:57;1.85;;;0.80;;
73089;SDS011;61269;49.450;8.610;2023-05-10T10:14:25;1.58;;;0.80;;
73089;SDS011;61269;49.450;8.610;2023-05-10T10:16:55;1.88;;;0.88;;
73089;SDS011;61269;49.450;8.610;2023-05-10T10:19:34;2.27;;;0.90;;
73089;SDS011;61269;49.450;8.610;2023-05-10T10:22:04;2.47;;;0.63;;
73089;SDS011;61269;49.450;8.610;2023-05-10T10:24:33;1.80;;;0.68;;
73089;SDS011;61269;49.450;8.610;2023-05-10T10:27:04;2.13;;;0.70;;
73089;SDS011;61269;49.450;8.610;2023-05-10T10:29:39;1.30;;;0.70;;
73089;SDS011;61269;49.450;8.610;2023-05-10T10:32:18;2.37;;;1.00;;
73089;SDS011;61269;49.450;8.610;2023-05-10T10:34:50;1.88;;;0.85;;
73089;SDS011;61269;49.450;8.610;2023-05-10T10:37:18;1.63;;;1.00;;
73089;SDS011;61269;49.450;8.610;2023-05-10T10:39:47;2.45;;;0.88;;
73089;SDS011;61269;49.450;8.610;2023-05-10T10:45:12;1.33;;;0.63;;
73089;SDS011;61269;49.450;8.610;2023-05-10T10:47:42;1.92;;;0.70;;
73089;SDS011;61269;49.450;8.610;2023-05-10T10:50:10;1.35;;;0.80;;
73089;SDS011;61269;49.450;8.610;2023-05-10T10:52:39;1.60;;;0.82;;
73089;SDS011;61269;49.450;8.610;2023-05-10T10:55:09;1.50;;;0.90;;
73089;SDS011;61269;49.450;8.610;2023-05-10T10:57:45;2.30;;;1.13;;
73089;SDS011;61269;49.450;8.610;2023-05-10T11:00:18;1.40;;;0.80;;
73089;SDS011;61269;49.450;8.610;2023-05-10T11:02:59;2.15;;;0.80;;
73089;SDS011;61269;49.450;8.610;2023-05-10T11:05:38;3.72;;;1.02;;
73089;SDS011;61269;49.450;8.610;2023-05-10T11:08:09;2.10;;;1.00;;
73089;SDS011;61269;49.450;8.610;2023-05-10T11:10:39;1.80;;;0.63;;
73089;SDS011;61269;49.450;8.610;2023-05-10T11:13:08;1.77;;;0.85;;
73089;SDS011;61269;49.450;8.610;2023-05-10T11:15:37;2.33;;;0.95;;
73089;SDS011;61269;49.450;8.610;2023-05-10T11:18:20;1.30;;;0.55;;
73089;SDS011;61269;49.450;8.610;2023-05-10T11:20:51;3.08;;;0.90;;
73089;SDS011;61269;49.450;8.610;2023-05-10T11:23:20;1.57;;;0.80;;
73089;SDS011;61269;49.450;8.610;2023-05-10T11:25:49;1.42;;;0.70;;
73089;SDS011;61269;49.450;8.610;2023-05-10T11:28:17;2.35;;;0.70;;
73089;SDS011;61269;49.450;8.610;2023-05-10T11:30:46;2.80;;;0.80;;
73089;SDS011;61269;49.450;8.610;2023-05-10T11:33:15;1.38;;;0.80;;
73089;SDS011;61269;49.450;8.610;2023-05-10T11:35:46;1.30;;;0.60;;
73089;SDS011;61269;49.450;8.610;2023-05-10T11:38:14;1.42;;;0.60;;
73089;SDS011;61269;49.450;8.610;2023-05-10T11:40:42;1.60;;;0.70;;
73089;SDS011;61269;49.450;8.610;2023-05-10T11:43:11;1.45;;;0.60;;
73089;SDS011;61269;49.450;8.610;2023-05-10T11:45:40;1.50;;;0.60;;
73089;SDS011;61269;49.450;8.610;2023-05-10T11:48:08;1.27;;;0.70;;
73089;SDS011;61269;49.450;8.610;2023-05-10T11:50:37;1.15;;;0.60;;
73089;SDS011;61269;49.450;8.610;2023-05-10T11:53:06;1.42;;;0.70;;
73089;SDS011;61269;49.450;8.610;2023-05-10T11:55:35;1.30;;;0.60;;
73089;SDS011;61269;49.450;8.610;2023-05-10T11:58:03;1.38;;;0.60;;
73089;SDS011;61269;49.450;8.610;2023-05-10T12:00:32;1.47;;;0.53;;
73089;SDS011;61269;49.450;8.610;2023-05-10T12:03:00;0.93;;;0.55;;
73089;SDS011;61269;49.450;8.610;2023-05-10T12:05:31;2.67;;;0.60;;
73089;SDS011;61269;49.450;8.610;2023-05-10T12:08:14;1.60;;;0.85;;
73089;SDS011;61269;49.450;8.610;2023-05-10T12:10:43;1.65;;;0.70;;
73089;SDS011;61269;49.450;8.610;2023-05-10T12:13:11;1.20;;;0.60;;
73089;SDS011;61269;49.450;8.610;2023-05-10T12:15:43;1.30;;;0.60;;
73089;SDS011;61269;49.450;8.610;2023-05-10T12:18:11;1.13;;;0.65;;
73089;SDS011;61269;49.450;8.610;2023-05-10T12:20:40;0.90;;;0.50;;
73089;SDS011;61269;49.450;8.610;2023-05-10T12:23:09;1.17;;;0.68;;
73089;SDS011;61269;49.450;8.610;2023-05-10T12:25:39;0.90;;;0.40;;
73089;SDS011;61269;49.450;8.610;2023-05-10T12:28:08;1.88;;;0.70;;
73089;SDS011;61269;49.450;8.610;2023-05-10T12:30:37;1.98;;;0.60;;
73089;SDS011;61269;49.450;8.610;2023-05-10T12:33:07;3.08;;;0.70;;
73089;SDS011;61269;49.450;8.610;2023-05-10T12:35:43;2.58;;;0.60;;
73089;SDS011;61269;49.450;8.610;2023-05-10T12:38:28;2.13;;;0.60;;
73089;SDS011;61269;49.450;8.610;2023-05-10T12:40:59;1.63;;;0.82;;
73089;SDS011;61269;49.450;8.610;2023-05-10T12:43:28;0.90;;;0.50;;
73089;SDS011;61269;49.450;8.610;2023-05-10T12:45:57;3.25;;;0.90;;
73089;SDS011;61269;49.450;8.610;2023-05-10T12:48:25;6.50;;;2.35;;
73089;SDS011;61269;49.450;8.610;2023-05-10T12:50:55;9.63;;;3.27;;
73089;SDS011;61269;49.450;8.610;2023-05-10T12:53:23;3.20;;;1.33;;
73089;SDS011;61269;49.450;8.610;2023-05-10T12:55:51;2.97;;;0.90;;
73089;SDS011;61269;49.450;8.610;2023-05-10T12:58:21;1.42;;;0.68;;
73089;SDS011;61269;49.450;8.610;2023-05-10T13:01:01;3.50;;;0.90;;
73089;SDS011;61269;49.450;8.610;2023-05-10T13:03:30;2.00;;;0.80;;
73089;SDS011;61269;49.450;8.610;2023-05-10T13:06:01;1.40;;;0.77;;
73089;SDS011;61269;49.450;8.610;2023-05-10T13:08:29;2.05;;;0.90;;
73089;SDS011;61269;49.450;8.610;2023-05-10T13:11:00;2.08;;;0.70;;
73089;SDS011;61269;49.450;8.610;2023-05-10T13:13:31;1.60;;;0.65;;
73089;SDS011;61269;49.450;8.610;2023-05-10T13:15:59;5.37;;;0.70;;
73089;SDS011;61269;49.450;8.610;2023-05-10T13:18:27;2.20;;;0.70;;
73089;SDS011;61269;49.450;8.610;2023-05-10T13:20:55;2.05;;;0.57;;
73089;SDS011;61269;49.450;8.610;2023-05-10T13:23:23;0.70;;;0.32;;
73089;SDS011;61269;49.450;8.610;2023-05-10T13:25:51;2.35;;;0.68;;
73089;SDS011;61269;49.450;8.610;2023-05-10T13:28:20;1.13;;;0.50;;
73089;SDS011;61269;49.450;8.610;2023-05-10T13:30:49;1.63;;;0.50;;
73089;SDS011;61269;49.450;8.610;2023-05-10T13:33:17;1.88;;;0.75;;
73089;SDS011;61269;49.450;8.610;2023-05-10T13:35:46;1.52;;;0.80;;
73089;SDS011;61269;49.450;8.610;2023-05-10T13:38:14;1.58;;;0.80;;
73089;SDS011;61269;49.450;8.610;2023-05-10T13:40:42;1.33;;;0.60;;
73089;SDS011;61269;49.450;8.610;2023-05-10T13:43:11;1.92;;;0.60;;
73089;SDS011;61269;49.450;8.610;2023-05-10T13:45:39;1.17;;;0.50;;
73089;SDS011;61269;49.450;8.610;2023-05-10T13:48:08;3.78;;;0.68;;
73089;SDS011;61269;49.450;8.610;2023-05-10T13:50:37;2.88;;;0.60;;
73089;SDS011;61269;49.450;8.610;2023-05-10T13:53:05;1.27;;;0.67;;
73089;SDS011;61269;49.450;8.610;2023-05-10T13:55:33;2.13;;;0.70;;
73089;SDS011;61269;49.450;8.610;2023-05-10T13:58:01;1.13;;;0.60;;
73089;SDS011;61269;49.450;8.610;2023-05-10T14:00:29;2.00;;;0.60;;
73089;SDS011;61269;49.450;8.610;2023-05-10T14:02:58;1.40;;;0.52;;
73089;SDS011;61269;49.450;8.610;2023-05-10T14:05:28;1.30;;;0.80;;
73089;SDS011;61269;49.450;8.610;2023-05-10T14:07:58;1.10;;;0.52;;
73089;SDS011;61269;49.450;8.610;2023-05-10T14:10:37;1.58;;;0.52;;
73089;SDS011;61269;49.450;8.610;2023-05-10T14:13:06;1.40;;;0.50;;
73089;SDS011;61269;49.450;8.610;2023-05-10T14:15:34;0.90;;;0.40;;
73089;SDS011;61269;49.450;8.610;2023-05-10T14:18:02;1.00;;;0.50;;
73089;SDS011;61269;49.450;8.610;2023-05-10T14:20:32;2.45;;;0.63;;
73089;SDS011;61269;49.450;8.610;2023-05-10T14:23:00;0.93;;;0.50;;
73089;SDS011;61269;49.450;8.610;2023-05-10T14:25:29;0.93;;;0.43;;
73089;SDS011;61269;49.450;8.610;2023-05-10T14:27:57;1.48;;;0.50;;
73089;SDS011;61269;49.450;8.610;2023-05-10T14:30:25;1.43;;;0.67;;
73089;SDS011;61269;49.450;8.610;2023-05-10T14:32:53;13.15;;;7.65;;
73089;SDS011;61269;49.450;8.610;2023-05-10T14:35:21;10.88;;;4.85;;
73089;SDS011;61269;49.450;8.610;2023-05-10T14:37:52;9.05;;;2.08;;
73089;SDS011;61269;49.450;8.610;2023-05-10T14:40:20;3.97;;;1.10;;
73089;SDS011;61269;49.450;8.610;2023-05-10T14:42:48;2.37;;;0.60;;
73089;SDS011;61269;49.450;8.610;2023-05-10T14:45:16;1.70;;;0.50;;
73089;SDS011;61269;49.450;8.610;2023-05-10T14:47:45;1.92;;;0.30;;
73089;SDS011;61269;49.450;8.610;2023-05-10T14:50:13;1.60;;;0.50;;
73089;SDS011;61269;49.450;8.610;2023-05-10T14:53:02;2.17;;;0.50;;
73089;SDS011;61269;49.450;8.610;2023-05-10T14:55:30;0.80;;;0.50;;
73089;SDS011;61269;49.450;8.610;2023-05-10T14:57:59;0.80;;;0.32;;
73089;SDS011;61269;49.450;8.610;2023-05-10T15:00:28;1.65;;;0.50;;
73089;SDS011;61269;49.450;8.610;2023-05-10T15:02:57;1.00;;;0.50;;
73089;SDS011;61269;49.450;8.610;2023-05-10T15:05:26;1.88;;;0.50;;
73089;SDS011;61269;49.450;8.610;2023-05-10T15:07:55;1.43;;;0.60;;